sensor_id;sensor_type;location;lat;lon;timestamp;P1;durP1;ratioP1;P2;durP2;ratioP2
41705;SDS011;27385;51.096;17.190;2022-11-18T00:01:17;16.50;;;6.40;;
41705;SDS011;27385;51.096;17.190;2022-11-18T00:03:50;18.80;;;6.60;;
41705;SDS011;27385;51.096;17.190;2022-11-18T00:06:23;16.30;;;6.40;;
41705;SDS011;27385;51.096;17.190;2022-11-18T00:08:56;17.30;;;6.00;;
41705;SDS011;27385;51.096;17.190;2022-11-18T00:11:30;16.60;;;5.80;;
41705;SDS011;27385;51.096;17.190;2022-11-18T00:14:19;15.60;;;5.40;;
41705;SDS011;27385;51.096;17.190;2022-11-18T00:16:52;15.10;;;5.70;;
41705;SDS011;27385;51.096;17.190;2022-11-18T00:19:27;17.20;;;5.70;;
41705;SDS011;27385;51.096;17.190;2022-11-18T00:22:00;15.80;;;5.30;;
41705;SDS011;27385;51.096;17.190;2022-11-18T00:24:32;14.70;;;5.20;;
41705;SDS011;27385;51.096;17.190;2022-11-18T00:27:04;15.70;;;5.70;;
41705;SDS011;27385;51.096;17.190;2022-11-18T00:29:37;14.30;;;5.10;;
41705;SDS011;27385;51.096;17.190;2022-11-18T00:32:08;15.20;;;5.60;;
41705;SDS011;27385;51.096;17.190;2022-11-18T00:34:39;18.40;;;6.20;;
41705;SDS011;27385;51.096;17.190;2022-11-18T00:37:11;19.10;;;6.50;;
41705;SDS011;27385;51.096;17.190;2022-11-18T00:39:42;14.90;;;5.40;;
41705;SDS011;27385;51.096;17.190;2022-11-18T00:42:14;14.70;;;5.20;;
41705;SDS011;27385;51.096;17.190;2022-11-18T00:45:03;15.70;;;5.80;;
41705;SDS011;27385;51.096;17.190;2022-11-18T00:47:36;20.20;;;5.80;;
41705;SDS011;27385;51.096;17.190;2022-11-18T00:50:08;19.80;;;6.90;;
41705;SDS011;27385;51.096;17.190;2022-11-18T00:52:40;14.00;;;5.10;;
41705;SDS011;27385;51.096;17.190;2022-11-18T00:55:12;14.10;;;5.40;;
41705;SDS011;27385;51.096;17.190;2022-11-18T00:57:44;15.20;;;5.40;;
41705;SDS011;27385;51.096;17.190;2022-11-18T01:00:16;17.60;;;5.80;;
41705;SDS011;27385;51.096;17.190;2022-11-18T01:02:48;17.50;;;6.60;;
41705;SDS011;27385;51.096;17.190;2022-11-18T01:05:20;19.30;;;6.60;;
41705;SDS011;27385;51.096;17.190;2022-11-18T01:07:51;14.10;;;5.20;;
41705;SDS011;27385;51.096;17.190;2022-11-18T01:10:25;17.90;;;6.10;;
41705;SDS011;27385;51.096;17.190;2022-11-18T01:12:56;19.20;;;5.80;;
41705;SDS011;27385;51.096;17.190;2022-11-18T01:15:47;15.50;;;5.60;;
41705;SDS011;27385;51.096;17.190;2022-11-18T01:18:21;19.20;;;7.30;;
41705;SDS011;27385;51.096;17.190;2022-11-18T01:20:54;17.40;;;6.00;;
41705;SDS011;27385;51.096;17.190;2022-11-18T01:23:30;16.00;;;6.10;;
41705;SDS011;27385;51.096;17.190;2022-11-18T01:26:04;19.10;;;6.30;;
41705;SDS011;27385;51.096;17.190;2022-11-18T01:28:37;17.10;;;6.20;;
41705;SDS011;27385;51.096;17.190;2022-11-18T01:31:09;18.60;;;6.40;;
41705;SDS011;27385;51.096;17.190;2022-11-18T01:33:43;19.40;;;7.40;;
41705;SDS011;27385;51.096;17.190;2022-11-18T01:36:15;19.30;;;7.00;;
41705;SDS011;27385;51.096;17.190;2022-11-18T01:38:48;15.10;;;6.40;;
41705;SDS011;27385;51.096;17.190;2022-11-18T01:41:22;19.70;;;6.80;;
41705;SDS011;27385;51.096;17.190;2022-11-18T01:43:56;17.70;;;6.20;;
41705;SDS011;27385;51.096;17.190;2022-11-18T01:46:29;17.40;;;6.50;;
41705;SDS011;27385;51.096;17.190;2022-11-18T01:49:03;18.40;;;6.50;;
41705;SDS011;27385;51.096;17.190;2022-11-18T01:51:38;22.20;;;6.70;;
41705;SDS011;27385;51.096;17.190;2022-11-18T01:54:15;17.70;;;6.20;;
41705;SDS011;27385;51.096;17.190;2022-11-18T01:56:53;17.70;;;6.20;;
41705;SDS011;27385;51.096;17.190;2022-11-18T01:59:31;19.50;;;6.70;;
41705;SDS011;27385;51.096;17.190;2022-11-18T02:02:07;22.30;;;6.70;;
41705;SDS011;27385;51.096;17.190;2022-11-18T02:04:40;17.10;;;6.70;;
41705;SDS011;27385;51.096;17.190;2022-11-18T02:07:13;18.90;;;6.40;;
41705;SDS011;27385;51.096;17.190;2022-11-18T02:09:45;21.60;;;8.10;;
41705;SDS011;27385;51.096;17.190;2022-11-18T02:12:17;16.10;;;5.80;;
41705;SDS011;27385;51.096;17.190;2022-11-18T02:14:49;20.40;;;7.80;;
41705;SDS011;27385;51.096;17.190;2022-11-18T02:17:25;20.40;;;7.40;;
41705;SDS011;27385;51.096;17.190;2022-11-18T02:20:16;18.90;;;6.80;;
41705;SDS011;27385;51.096;17.190;2022-11-18T02:26:25;19.90;;;7.00;;
41705;SDS011;27385;51.096;17.190;2022-11-18T02:29:08;17.80;;;6.80;;
41705;SDS011;27385;51.096;17.190;2022-11-18T02:31:45;18.50;;;6.90;;
41705;SDS011;27385;51.096;17.190;2022-11-18T02:34:26;15.40;;;6.00;;
41705;SDS011;27385;51.096;17.190;2022-11-18T02:37:10;19.40;;;6.50;;
41705;SDS011;27385;51.096;17.190;2022-11-18T02:39:46;17.90;;;6.60;;
41705;SDS011;27385;51.096;17.190;2022-11-18T02:42:23;23.60;;;7.00;;
41705;SDS011;27385;51.096;17.190;2022-11-18T02:44:59;20.40;;;7.90;;
41705;SDS011;27385;51.096;17.190;2022-11-18T02:47:34;18.70;;;7.70;;
41705;SDS011;27385;51.096;17.190;2022-11-18T02:50:07;19.70;;;7.50;;
41705;SDS011;27385;51.096;17.190;2022-11-18T02:52:43;18.60;;;7.50;;
41705;SDS011;27385;51.096;17.190;2022-11-18T02:55:18;19.20;;;7.50;;
41705;SDS011;27385;51.096;17.190;2022-11-18T02:57:52;17.60;;;6.50;;
41705;SDS011;27385;51.096;17.190;2022-11-18T03:00:25;22.50;;;7.60;;
41705;SDS011;27385;51.096;17.190;2022-11-18T03:02:57;18.50;;;6.70;;
41705;SDS011;27385;51.096;17.190;2022-11-18T03:05:39;16.70;;;6.50;;
41705;SDS011;27385;51.096;17.190;2022-11-18T03:08:18;22.00;;;8.00;;
41705;SDS011;27385;51.096;17.190;2022-11-18T03:10:56;17.20;;;6.00;;
41705;SDS011;27385;51.096;17.190;2022-11-18T03:13:34;19.90;;;6.70;;
41705;SDS011;27385;51.096;17.190;2022-11-18T03:16:18;17.70;;;7.30;;
41705;SDS011;27385;51.096;17.190;2022-11-18T03:18:56;18.90;;;7.50;;
41705;SDS011;27385;51.096;17.190;2022-11-18T03:21:36;17.10;;;6.30;;
41705;SDS011;27385;51.096;17.190;2022-11-18T03:24:13;18.70;;;6.90;;
41705;SDS011;27385;51.096;17.190;2022-11-18T03:26:48;19.90;;;7.50;;
41705;SDS011;27385;51.096;17.190;2022-11-18T03:29:25;23.00;;;8.40;;
41705;SDS011;27385;51.096;17.190;2022-11-18T03:32:04;23.00;;;8.20;;
41705;SDS011;27385;51.096;17.190;2022-11-18T03:34:40;22.40;;;7.70;;
41705;SDS011;27385;51.096;17.190;2022-11-18T03:37:15;22.20;;;8.80;;
41705;SDS011;27385;51.096;17.190;2022-11-18T03:39:49;19.40;;;8.10;;
41705;SDS011;27385;51.096;17.190;2022-11-18T03:42:27;20.20;;;8.20;;
41705;SDS011;27385;51.096;17.190;2022-11-18T03:45:02;22.60;;;8.50;;
41705;SDS011;27385;51.096;17.190;2022-11-18T03:47:39;21.60;;;8.20;;
41705;SDS011;27385;51.096;17.190;2022-11-18T03:50:14;22.00;;;8.70;;
41705;SDS011;27385;51.096;17.190;2022-11-18T03:52:49;20.10;;;8.10;;
41705;SDS011;27385;51.096;17.190;2022-11-18T03:55:22;22.20;;;7.50;;
41705;SDS011;27385;51.096;17.190;2022-11-18T03:57:59;20.30;;;7.60;;
41705;SDS011;27385;51.096;17.190;2022-11-18T04:00:37;23.90;;;7.40;;
41705;SDS011;27385;51.096;17.190;2022-11-18T04:03:11;24.40;;;9.30;;
41705;SDS011;27385;51.096;17.190;2022-11-18T04:05:42;20.20;;;8.70;;
41705;SDS011;27385;51.096;17.190;2022-11-18T04:08:20;21.30;;;8.90;;
41705;SDS011;27385;51.096;17.190;2022-11-18T04:10:58;21.60;;;8.80;;
41705;SDS011;27385;51.096;17.190;2022-11-18T04:13:35;22.60;;;8.80;;
41705;SDS011;27385;51.096;17.190;2022-11-18T04:16:07;25.20;;;9.80;;
41705;SDS011;27385;51.096;17.190;2022-11-18T04:18:39;23.80;;;9.60;;
41705;SDS011;27385;51.096;17.190;2022-11-18T04:21:10;26.90;;;10.10;;
41705;SDS011;27385;51.096;17.190;2022-11-18T04:23:42;27.20;;;9.90;;
41705;SDS011;27385;51.096;17.190;2022-11-18T04:26:14;23.30;;;8.60;;
41705;SDS011;27385;51.096;17.190;2022-11-18T04:28:46;24.40;;;10.80;;
41705;SDS011;27385;51.096;17.190;2022-11-18T04:31:18;24.00;;;9.20;;
41705;SDS011;27385;51.096;17.190;2022-11-18T04:33:49;27.70;;;10.90;;
41705;SDS011;27385;51.096;17.190;2022-11-18T04:36:21;23.80;;;10.20;;
41705;SDS011;27385;51.096;17.190;2022-11-18T04:38:52;28.40;;;11.20;;
41705;SDS011;27385;51.096;17.190;2022-11-18T04:41:23;25.30;;;8.50;;
41705;SDS011;27385;51.096;17.190;2022-11-18T04:44:09;28.10;;;11.40;;
41705;SDS011;27385;51.096;17.190;2022-11-18T04:46:41;27.70;;;12.20;;
41705;SDS011;27385;51.096;17.190;2022-11-18T04:49:13;28.40;;;11.60;;
41705;SDS011;27385;51.096;17.190;2022-11-18T04:51:45;32.80;;;12.00;;
41705;SDS011;27385;51.096;17.190;2022-11-18T04:54:17;29.50;;;13.10;;
41705;SDS011;27385;51.096;17.190;2022-11-18T04:56:51;29.50;;;13.30;;
41705;SDS011;27385;51.096;17.190;2022-11-18T04:59:24;33.30;;;12.70;;
41705;SDS011;27385;51.096;17.190;2022-11-18T05:01:56;28.40;;;11.10;;
41705;SDS011;27385;51.096;17.190;2022-11-18T05:04:29;29.00;;;11.30;;
41705;SDS011;27385;51.096;17.190;2022-11-18T05:07:02;27.40;;;11.30;;
41705;SDS011;27385;51.096;17.190;2022-11-18T05:09:34;31.50;;;12.30;;
41705;SDS011;27385;51.096;17.190;2022-11-18T05:12:08;27.90;;;11.70;;
41705;SDS011;27385;51.096;17.190;2022-11-18T05:14:59;30.60;;;11.30;;
41705;SDS011;27385;51.096;17.190;2022-11-18T05:17:33;27.40;;;11.70;;
41705;SDS011;27385;51.096;17.190;2022-11-18T05:20:05;29.30;;;12.30;;
41705;SDS011;27385;51.096;17.190;2022-11-18T05:22:38;25.80;;;10.40;;
41705;SDS011;27385;51.096;17.190;2022-11-18T05:25:09;26.80;;;10.00;;
41705;SDS011;27385;51.096;17.190;2022-11-18T05:27:41;26.90;;;10.90;;
41705;SDS011;27385;51.096;17.190;2022-11-18T05:30:13;28.40;;;11.30;;
41705;SDS011;27385;51.096;17.190;2022-11-18T05:32:45;30.00;;;11.40;;
41705;SDS011;27385;51.096;17.190;2022-11-18T05:35:17;28.80;;;10.60;;
41705;SDS011;27385;51.096;17.190;2022-11-18T05:37:50;24.20;;;9.80;;
41705;SDS011;27385;51.096;17.190;2022-11-18T05:40:21;31.50;;;12.20;;
41705;SDS011;27385;51.096;17.190;2022-11-18T05:42:52;24.80;;;8.80;;
41705;SDS011;27385;51.096;17.190;2022-11-18T05:45:39;27.40;;;11.00;;
41705;SDS011;27385;51.096;17.190;2022-11-18T05:48:11;25.80;;;9.20;;
41705;SDS011;27385;51.096;17.190;2022-11-18T05:50:45;28.60;;;11.20;;
41705;SDS011;27385;51.096;17.190;2022-11-18T05:53:19;27.70;;;10.40;;
41705;SDS011;27385;51.096;17.190;2022-11-18T05:55:52;51.90;;;20.30;;
41705;SDS011;27385;51.096;17.190;2022-11-18T05:58:29;62.60;;;24.30;;
41705;SDS011;27385;51.096;17.190;2022-11-18T06:01:02;109.00;;;37.40;;
41705;SDS011;27385;51.096;17.190;2022-11-18T06:03:36;212.70;;;61.20;;
41705;SDS011;27385;51.096;17.190;2022-11-18T06:06:09;111.60;;;37.30;;
41705;SDS011;27385;51.096;17.190;2022-11-18T06:08:42;62.60;;;21.40;;
41705;SDS011;27385;51.096;17.190;2022-11-18T06:11:15;47.20;;;17.50;;
41705;SDS011;27385;51.096;17.190;2022-11-18T06:13:50;96.90;;;35.90;;
41705;SDS011;27385;51.096;17.190;2022-11-18T06:16:28;68.00;;;29.70;;
41705;SDS011;27385;51.096;17.190;2022-11-18T06:19:02;50.90;;;21.30;;
41705;SDS011;27385;51.096;17.190;2022-11-18T06:21:34;35.00;;;14.90;;
41705;SDS011;27385;51.096;17.190;2022-11-18T06:24:06;33.00;;;13.50;;
41705;SDS011;27385;51.096;17.190;2022-11-18T06:26:38;50.70;;;21.00;;
41705;SDS011;27385;51.096;17.190;2022-11-18T06:29:11;59.90;;;24.40;;
41705;SDS011;27385;51.096;17.190;2022-11-18T06:31:46;49.20;;;21.20;;
41705;SDS011;27385;51.096;17.190;2022-11-18T06:34:17;38.00;;;16.50;;
41705;SDS011;27385;51.096;17.190;2022-11-18T06:36:49;33.20;;;13.20;;
41705;SDS011;27385;51.096;17.190;2022-11-18T06:39:20;32.90;;;13.80;;
41705;SDS011;27385;51.096;17.190;2022-11-18T06:41:52;31.40;;;13.40;;
41705;SDS011;27385;51.096;17.190;2022-11-18T06:44:24;31.40;;;12.80;;
41705;SDS011;27385;51.096;17.190;2022-11-18T06:46:55;31.90;;;13.90;;
41705;SDS011;27385;51.096;17.190;2022-11-18T06:49:28;32.60;;;15.10;;
41705;SDS011;27385;51.096;17.190;2022-11-18T06:52:00;35.20;;;15.30;;
41705;SDS011;27385;51.096;17.190;2022-11-18T06:54:32;33.60;;;13.80;;
41705;SDS011;27385;51.096;17.190;2022-11-18T06:57:03;32.90;;;14.90;;
41705;SDS011;27385;51.096;17.190;2022-11-18T06:59:35;35.50;;;16.10;;
41705;SDS011;27385;51.096;17.190;2022-11-18T07:02:06;37.90;;;15.50;;
41705;SDS011;27385;51.096;17.190;2022-11-18T07:04:38;37.40;;;17.30;;
41705;SDS011;27385;51.096;17.190;2022-11-18T07:07:09;43.60;;;19.40;;
41705;SDS011;27385;51.096;17.190;2022-11-18T07:09:41;40.70;;;18.30;;
41705;SDS011;27385;51.096;17.190;2022-11-18T07:12:13;46.80;;;19.70;;
41705;SDS011;27385;51.096;17.190;2022-11-18T07:14:45;46.20;;;16.80;;
41705;SDS011;27385;51.096;17.190;2022-11-18T07:17:17;40.20;;;17.80;;
41705;SDS011;27385;51.096;17.190;2022-11-18T07:19:48;40.30;;;18.80;;
41705;SDS011;27385;51.096;17.190;2022-11-18T07:22:20;37.00;;;16.10;;
41705;SDS011;27385;51.096;17.190;2022-11-18T07:24:51;37.30;;;16.00;;
41705;SDS011;27385;51.096;17.190;2022-11-18T07:27:23;43.20;;;18.80;;
41705;SDS011;27385;51.096;17.190;2022-11-18T07:29:56;45.10;;;19.20;;
41705;SDS011;27385;51.096;17.190;2022-11-18T07:32:28;40.40;;;17.10;;
41705;SDS011;27385;51.096;17.190;2022-11-18T07:35:01;36.80;;;16.40;;
41705;SDS011;27385;51.096;17.190;2022-11-18T07:37:33;36.20;;;14.30;;
41705;SDS011;27385;51.096;17.190;2022-11-18T07:40:06;36.10;;;14.70;;
41705;SDS011;27385;51.096;17.190;2022-11-18T07:42:39;37.60;;;15.70;;
41705;SDS011;27385;51.096;17.190;2022-11-18T07:45:11;33.20;;;14.00;;
41705;SDS011;27385;51.096;17.190;2022-11-18T07:47:43;40.40;;;14.80;;
41705;SDS011;27385;51.096;17.190;2022-11-18T07:50:15;38.50;;;14.00;;
41705;SDS011;27385;51.096;17.190;2022-11-18T07:52:47;38.90;;;16.00;;
41705;SDS011;27385;51.096;17.190;2022-11-18T07:55:19;31.80;;;12.10;;
41705;SDS011;27385;51.096;17.190;2022-11-18T07:57:51;33.90;;;14.60;;
41705;SDS011;27385;51.096;17.190;2022-11-18T08:00:24;36.90;;;14.50;;
41705;SDS011;27385;51.096;17.190;2022-11-18T08:02:56;37.80;;;14.30;;
41705;SDS011;27385;51.096;17.190;2022-11-18T08:05:27;33.30;;;12.30;;
41705;SDS011;27385;51.096;17.190;2022-11-18T08:07:59;33.80;;;13.80;;
41705;SDS011;27385;51.096;17.190;2022-11-18T08:10:30;38.90;;;15.80;;
41705;SDS011;27385;51.096;17.190;2022-11-18T08:13:02;35.80;;;15.30;;
41705;SDS011;27385;51.096;17.190;2022-11-18T08:15:38;41.30;;;15.30;;
41705;SDS011;27385;51.096;17.190;2022-11-18T08:18:10;40.00;;;17.50;;
41705;SDS011;27385;51.096;17.190;2022-11-18T08:20:41;37.90;;;16.90;;
41705;SDS011;27385;51.096;17.190;2022-11-18T08:23:14;39.10;;;15.10;;
41705;SDS011;27385;51.096;17.190;2022-11-18T08:25:46;33.40;;;15.70;;
41705;SDS011;27385;51.096;17.190;2022-11-18T08:28:18;36.90;;;15.90;;
41705;SDS011;27385;51.096;17.190;2022-11-18T08:30:50;36.50;;;15.50;;
41705;SDS011;27385;51.096;17.190;2022-11-18T08:33:21;38.80;;;17.10;;
41705;SDS011;27385;51.096;17.190;2022-11-18T08:35:53;41.30;;;16.40;;
41705;SDS011;27385;51.096;17.190;2022-11-18T08:38:25;38.60;;;16.10;;
41705;SDS011;27385;51.096;17.190;2022-11-18T08:40:57;33.80;;;14.50;;
41705;SDS011;27385;51.096;17.190;2022-11-18T08:43:28;40.30;;;16.30;;
41705;SDS011;27385;51.096;17.190;2022-11-18T08:46:00;42.20;;;17.50;;
41705;SDS011;27385;51.096;17.190;2022-11-18T08:48:32;37.90;;;17.20;;
41705;SDS011;27385;51.096;17.190;2022-11-18T08:51:03;40.40;;;17.10;;
41705;SDS011;27385;51.096;17.190;2022-11-18T08:53:38;37.80;;;16.40;;
41705;SDS011;27385;51.096;17.190;2022-11-18T08:56:11;39.60;;;17.20;;
41705;SDS011;27385;51.096;17.190;2022-11-18T08:58:45;43.20;;;17.80;;
41705;SDS011;27385;51.096;17.190;2022-11-18T09:01:17;38.00;;;15.60;;
41705;SDS011;27385;51.096;17.190;2022-11-18T09:03:49;34.50;;;14.50;;
41705;SDS011;27385;51.096;17.190;2022-11-18T09:06:21;41.20;;;17.50;;
41705;SDS011;27385;51.096;17.190;2022-11-18T09:08:53;39.10;;;17.20;;
41705;SDS011;27385;51.096;17.190;2022-11-18T09:11:25;41.10;;;18.70;;
41705;SDS011;27385;51.096;17.190;2022-11-18T09:13:57;41.00;;;18.50;;
41705;SDS011;27385;51.096;17.190;2022-11-18T09:16:30;39.30;;;17.60;;
41705;SDS011;27385;51.096;17.190;2022-11-18T09:19:02;41.40;;;18.10;;
41705;SDS011;27385;51.096;17.190;2022-11-18T09:21:34;36.70;;;14.20;;
41705;SDS011;27385;51.096;17.190;2022-11-18T09:24:06;38.50;;;16.10;;
41705;SDS011;27385;51.096;17.190;2022-11-18T09:26:38;37.00;;;16.20;;
41705;SDS011;27385;51.096;17.190;2022-11-18T09:29:10;30.70;;;12.80;;
41705;SDS011;27385;51.096;17.190;2022-11-18T09:31:41;27.60;;;11.60;;
41705;SDS011;27385;51.096;17.190;2022-11-18T09:34:13;32.70;;;14.40;;
41705;SDS011;27385;51.096;17.190;2022-11-18T09:36:44;39.90;;;15.50;;
41705;SDS011;27385;51.096;17.190;2022-11-18T09:39:16;31.30;;;12.80;;
41705;SDS011;27385;51.096;17.190;2022-11-18T09:41:48;34.50;;;12.60;;
41705;SDS011;27385;51.096;17.190;2022-11-18T09:47:26;38.50;;;14.20;;
41705;SDS011;27385;51.096;17.190;2022-11-18T09:50:00;31.80;;;14.00;;
41705;SDS011;27385;51.096;17.190;2022-11-18T09:52:35;35.50;;;15.10;;
41705;SDS011;27385;51.096;17.190;2022-11-18T09:55:12;36.30;;;15.70;;
41705;SDS011;27385;51.096;17.190;2022-11-18T09:57:46;39.50;;;17.40;;
41705;SDS011;27385;51.096;17.190;2022-11-18T10:00:21;38.60;;;16.80;;
41705;SDS011;27385;51.096;17.190;2022-11-18T10:02:57;38.50;;;17.10;;
41705;SDS011;27385;51.096;17.190;2022-11-18T10:05:32;34.90;;;15.60;;
41705;SDS011;27385;51.096;17.190;2022-11-18T10:08:17;29.60;;;13.40;;
41705;SDS011;27385;51.096;17.190;2022-11-18T10:10:56;37.80;;;17.00;;
41705;SDS011;27385;51.096;17.190;2022-11-18T10:13:41;29.60;;;12.30;;
41705;SDS011;27385;51.096;17.190;2022-11-18T10:16:28;31.10;;;12.20;;
41705;SDS011;27385;51.096;17.190;2022-11-18T10:19:14;31.50;;;15.10;;
41705;SDS011;27385;51.096;17.190;2022-11-18T10:21:56;31.00;;;13.40;;
41705;SDS011;27385;51.096;17.190;2022-11-18T10:24:43;31.00;;;13.90;;
41705;SDS011;27385;51.096;17.190;2022-11-18T10:27:18;31.20;;;14.40;;
41705;SDS011;27385;51.096;17.190;2022-11-18T10:29:53;28.80;;;13.30;;
41705;SDS011;27385;51.096;17.190;2022-11-18T10:32:27;35.10;;;15.10;;
41705;SDS011;27385;51.096;17.190;2022-11-18T10:34:58;30.00;;;13.20;;
41705;SDS011;27385;51.096;17.190;2022-11-18T10:37:31;33.00;;;13.90;;
41705;SDS011;27385;51.096;17.190;2022-11-18T10:40:08;32.10;;;14.00;;
41705;SDS011;27385;51.096;17.190;2022-11-18T10:42:54;31.40;;;14.00;;
41705;SDS011;27385;51.096;17.190;2022-11-18T10:45:27;34.20;;;15.20;;
41705;SDS011;27385;51.096;17.190;2022-11-18T10:48:01;34.50;;;14.10;;
41705;SDS011;27385;51.096;17.190;2022-11-18T10:50:39;35.50;;;14.90;;
41705;SDS011;27385;51.096;17.190;2022-11-18T10:53:27;33.40;;;14.50;;
41705;SDS011;27385;51.096;17.190;2022-11-18T10:56:01;39.60;;;16.10;;
41705;SDS011;27385;51.096;17.190;2022-11-18T10:58:36;35.20;;;16.10;;
41705;SDS011;27385;51.096;17.190;2022-11-18T11:01:18;34.80;;;16.00;;
41705;SDS011;27385;51.096;17.190;2022-11-18T11:03:53;37.60;;;15.40;;
41705;SDS011;27385;51.096;17.190;2022-11-18T11:06:34;36.70;;;16.40;;
41705;SDS011;27385;51.096;17.190;2022-11-18T11:09:08;33.10;;;13.80;;
41705;SDS011;27385;51.096;17.190;2022-11-18T11:12:02;33.40;;;14.30;;
41705;SDS011;27385;51.096;17.190;2022-11-18T11:14:44;33.60;;;14.80;;
41705;SDS011;27385;51.096;17.190;2022-11-18T11:17:24;37.50;;;15.60;;
41705;SDS011;27385;51.096;17.190;2022-11-18T11:20:00;36.00;;;14.20;;
41705;SDS011;27385;51.096;17.190;2022-11-18T11:22:39;33.30;;;14.20;;
41705;SDS011;27385;51.096;17.190;2022-11-18T11:25:14;39.10;;;17.90;;
41705;SDS011;27385;51.096;17.190;2022-11-18T11:27:50;42.30;;;19.40;;
41705;SDS011;27385;51.096;17.190;2022-11-18T11:30:29;33.60;;;14.60;;
41705;SDS011;27385;51.096;17.190;2022-11-18T11:36:06;38.80;;;17.60;;
41705;SDS011;27385;51.096;17.190;2022-11-18T11:38:54;38.40;;;16.00;;
41705;SDS011;27385;51.096;17.190;2022-11-18T11:41:51;41.30;;;17.20;;
41705;SDS011;27385;51.096;17.190;2022-11-18T11:44:37;40.20;;;16.10;;
41705;SDS011;27385;51.096;17.190;2022-11-18T11:47:20;40.50;;;16.00;;
41705;SDS011;27385;51.096;17.190;2022-11-18T11:50:24;35.70;;;15.10;;
41705;SDS011;27385;51.096;17.190;2022-11-18T11:53:23;35.50;;;13.50;;
41705;SDS011;27385;51.096;17.190;2022-11-18T11:56:10;35.50;;;14.70;;
41705;SDS011;27385;51.096;17.190;2022-11-18T11:58:52;34.00;;;13.30;;
41705;SDS011;27385;51.096;17.190;2022-11-18T12:01:36;36.70;;;15.60;;
41705;SDS011;27385;51.096;17.190;2022-11-18T12:04:22;41.60;;;15.20;;
41705;SDS011;27385;51.096;17.190;2022-11-18T12:07:02;40.40;;;17.80;;
41705;SDS011;27385;51.096;17.190;2022-11-18T12:09:44;42.50;;;17.20;;
41705;SDS011;27385;51.096;17.190;2022-11-18T12:12:27;38.40;;;15.70;;
41705;SDS011;27385;51.096;17.190;2022-11-18T12:15:05;41.70;;;17.80;;
41705;SDS011;27385;51.096;17.190;2022-11-18T12:17:47;50.50;;;20.30;;
41705;SDS011;27385;51.096;17.190;2022-11-18T12:20:36;47.30;;;18.70;;
41705;SDS011;27385;51.096;17.190;2022-11-18T12:23:11;51.50;;;20.30;;
41705;SDS011;27385;51.096;17.190;2022-11-18T12:25:49;45.90;;;20.00;;
41705;SDS011;27385;51.096;17.190;2022-11-18T12:28:23;38.40;;;15.30;;
41705;SDS011;27385;51.096;17.190;2022-11-18T12:34:16;41.90;;;15.60;;
41705;SDS011;27385;51.096;17.190;2022-11-18T12:36:56;42.30;;;16.30;;
41705;SDS011;27385;51.096;17.190;2022-11-18T12:40:06;40.10;;;17.40;;
41705;SDS011;27385;51.096;17.190;2022-11-18T12:42:42;35.10;;;14.00;;
41705;SDS011;27385;51.096;17.190;2022-11-18T12:48:37;35.70;;;13.50;;
41705;SDS011;27385;51.096;17.190;2022-11-18T12:54:19;30.20;;;12.00;;
41705;SDS011;27385;51.096;17.190;2022-11-18T12:56:54;35.10;;;14.50;;
41705;SDS011;27385;51.096;17.190;2022-11-18T12:59:28;34.20;;;14.60;;
41705;SDS011;27385;51.096;17.190;2022-11-18T13:02:04;28.80;;;10.50;;
41705;SDS011;27385;51.096;17.190;2022-11-18T13:07:37;26.60;;;9.60;;
41705;SDS011;27385;51.096;17.190;2022-11-18T13:10:29;30.50;;;11.60;;
41705;SDS011;27385;51.096;17.190;2022-11-18T13:13:03;35.60;;;12.90;;
41705;SDS011;27385;51.096;17.190;2022-11-18T13:15:42;30.20;;;10.60;;
41705;SDS011;27385;51.096;17.190;2022-11-18T13:18:33;31.20;;;12.60;;
41705;SDS011;27385;51.096;17.190;2022-11-18T13:21:20;28.60;;;12.30;;
41705;SDS011;27385;51.096;17.190;2022-11-18T13:24:14;28.60;;;11.10;;
41705;SDS011;27385;51.096;17.190;2022-11-18T13:26:52;26.40;;;8.30;;
41705;SDS011;27385;51.096;17.190;2022-11-18T13:29:33;24.80;;;9.20;;
41705;SDS011;27385;51.096;17.190;2022-11-18T13:32:15;24.80;;;8.60;;
41705;SDS011;27385;51.096;17.190;2022-11-18T13:34:51;21.60;;;7.20;;
41705;SDS011;27385;51.096;17.190;2022-11-18T13:37:25;21.70;;;7.50;;
41705;SDS011;27385;51.096;17.190;2022-11-18T13:39:59;17.70;;;5.00;;
41705;SDS011;27385;51.096;17.190;2022-11-18T13:42:31;19.50;;;5.70;;
41705;SDS011;27385;51.096;17.190;2022-11-18T13:45:03;17.50;;;6.00;;
41705;SDS011;27385;51.096;17.190;2022-11-18T13:47:37;18.50;;;5.40;;
41705;SDS011;27385;51.096;17.190;2022-11-18T13:50:16;18.10;;;5.00;;
41705;SDS011;27385;51.096;17.190;2022-11-18T13:55:30;21.30;;;4.60;;
41705;SDS011;27385;51.096;17.190;2022-11-18T13:58:10;14.80;;;4.50;;
41705;SDS011;27385;51.096;17.190;2022-11-18T14:00:58;16.70;;;3.70;;
41705;SDS011;27385;51.096;17.190;2022-11-18T14:03:32;18.60;;;4.60;;
41705;SDS011;27385;51.096;17.190;2022-11-18T14:06:23;15.20;;;4.10;;
41705;SDS011;27385;51.096;17.190;2022-11-18T14:09:07;18.60;;;4.90;;
41705;SDS011;27385;51.096;17.190;2022-11-18T14:11:58;19.50;;;7.10;;
41705;SDS011;27385;51.096;17.190;2022-11-18T14:14:32;17.60;;;6.70;;
41705;SDS011;27385;51.096;17.190;2022-11-18T14:17:13;22.70;;;6.10;;
41705;SDS011;27385;51.096;17.190;2022-11-18T14:19:48;12.00;;;2.90;;
41705;SDS011;27385;51.096;17.190;2022-11-18T14:22:21;22.20;;;7.90;;
41705;SDS011;27385;51.096;17.190;2022-11-18T14:24:55;29.80;;;10.70;;
41705;SDS011;27385;51.096;17.190;2022-11-18T14:27:32;22.50;;;7.50;;
41705;SDS011;27385;51.096;17.190;2022-11-18T14:33:13;19.20;;;6.30;;
41705;SDS011;27385;51.096;17.190;2022-11-18T14:35:48;16.30;;;4.50;;
41705;SDS011;27385;51.096;17.190;2022-11-18T14:38:34;21.40;;;5.70;;
41705;SDS011;27385;51.096;17.190;2022-11-18T14:41:11;21.20;;;4.80;;
41705;SDS011;27385;51.096;17.190;2022-11-18T14:44:04;21.90;;;5.70;;
41705;SDS011;27385;51.096;17.190;2022-11-18T14:46:37;15.60;;;3.50;;
41705;SDS011;27385;51.096;17.190;2022-11-18T14:49:13;16.40;;;3.10;;
41705;SDS011;27385;51.096;17.190;2022-11-18T14:51:50;10.80;;;2.90;;
41705;SDS011;27385;51.096;17.190;2022-11-18T14:54:24;13.40;;;3.50;;
41705;SDS011;27385;51.096;17.190;2022-11-18T14:56:56;19.30;;;3.80;;
41705;SDS011;27385;51.096;17.190;2022-11-18T14:59:28;14.80;;;4.10;;
41705;SDS011;27385;51.096;17.190;2022-11-18T15:02:00;21.10;;;5.10;;
41705;SDS011;27385;51.096;17.190;2022-11-18T15:04:32;21.30;;;5.70;;
41705;SDS011;27385;51.096;17.190;2022-11-18T15:07:03;20.00;;;5.10;;
41705;SDS011;27385;51.096;17.190;2022-11-18T15:09:41;23.70;;;6.00;;
41705;SDS011;27385;51.096;17.190;2022-11-18T15:12:13;19.80;;;6.10;;
41705;SDS011;27385;51.096;17.190;2022-11-18T15:14:44;18.10;;;5.90;;
41705;SDS011;27385;51.096;17.190;2022-11-18T15:17:16;25.20;;;7.20;;
41705;SDS011;27385;51.096;17.190;2022-11-18T15:19:48;30.00;;;10.10;;
41705;SDS011;27385;51.096;17.190;2022-11-18T15:22:20;34.90;;;12.80;;
41705;SDS011;27385;51.096;17.190;2022-11-18T15:24:53;27.90;;;11.40;;
41705;SDS011;27385;51.096;17.190;2022-11-18T15:27:24;26.20;;;10.30;;
41705;SDS011;27385;51.096;17.190;2022-11-18T15:29:56;35.10;;;12.10;;